»·PEaware :: N7565G KSNA-KCRQ

N7565G :: KSNA-KCRQ

FLIGHT INFORMATION

Flight Status: Arrived
Operator: Privately registered:
United States
More flights under this callsign
Pilot: Reuben K. (13591)
Aircraft: CESSNA T210 TURBO CENTURION
(T210)
More flights by this aircraft type
Origin: KSNA John Wayne-Orange Co
United States
Destination: KCRQ McClellan-Palomar
United States
More flights between these airports :: More routes between these airports
Route: +BALBO DANAH OFREE OORAH HURSI
File this flight plan on PilotEdge
Remarks: VFR Flight
Altitude:
(Current/Filed)
5,500ft
Speed:
(Current/Filed)
115kts
Departed: 10-Feb-19 02:13 PM
Arrived: 10-Feb-19 02:36 PM
Distance/Time
Traveled:
44nm/0:23
Distance/Time
To Go:
Arrived

Flight Plot

Page will automatically refresh every two minutes.

Flight plan parsing failed; only flown route is shown


Map Options




Map Legend


Flown Route
Filed Route
Departure Airport
Arrival Airport
Navaid (VOR, NDB)
Fix

Horizontal Profiles

Position Reports

Time Latitude Longitude Heading Altitude Ground
Speed
10-Feb-19 13:20 33.671199 -117.874092 29 60ft 0kts
10-Feb-19 13:21 33.671199 -117.874092 29 60ft 0kts
10-Feb-19 13:22 33.671199 -117.874092 29 60ft 0kts
10-Feb-19 13:23 33.671199 -117.874092 29 60ft 0kts
10-Feb-19 13:24 33.671199 -117.874092 29 60ft 0kts
10-Feb-19 13:25 33.671199 -117.874092 29 60ft 0kts
10-Feb-19 13:26 33.671199 -117.874092 29 60ft 0kts
10-Feb-19 13:27 33.671199 -117.874092 29 60ft 0kts
10-Feb-19 13:28 33.671199 -117.874092 29 60ft 0kts
10-Feb-19 13:29 33.671199 -117.874092 29 60ft 0kts
10-Feb-19 13:30 33.671199 -117.874092 29 60ft 0kts
10-Feb-19 13:31 33.671199 -117.874092 29 60ft 0kts
10-Feb-19 13:32 33.671199 -117.874092 29 60ft 0kts
10-Feb-19 13:33 33.671199 -117.874092 29 60ft 0kts
10-Feb-19 13:34 33.671199 -117.874092 29 60ft 0kts
10-Feb-19 13:35 33.671199 -117.874092 29 60ft 0kts
10-Feb-19 13:36 33.671199 -117.874092 29 60ft 0kts
10-Feb-19 13:37 33.671199 -117.874092 29 60ft 0kts
10-Feb-19 13:38 33.671199 -117.874092 29 60ft 0kts
10-Feb-19 13:39 33.671199 -117.874092 29 60ft 0kts
10-Feb-19 13:40 33.671199 -117.874092 29 60ft 0kts
10-Feb-19 13:41 33.671199 -117.874092 29 60ft 0kts
10-Feb-19 13:42 33.671199 -117.874092 29 60ft 0kts
10-Feb-19 13:43 33.671199 -117.874092 29 60ft 0kts
10-Feb-19 13:44 33.671199 -117.874092 29 60ft 0kts
10-Feb-19 13:45 33.671199 -117.874092 29 60ft 0kts
10-Feb-19 13:46 33.671199 -117.874092 29 60ft 0kts
10-Feb-19 13:47 33.671199 -117.874092 29 60ft 0kts
10-Feb-19 13:48 33.671199 -117.874092 29 60ft 0kts
10-Feb-19 13:49 33.671199 -117.874092 29 60ft 0kts
10-Feb-19 13:50 33.671199 -117.874092 29 60ft 0kts
10-Feb-19 13:51 33.671199 -117.874092 29 60ft 0kts
10-Feb-19 13:52 33.671199 -117.874092 29 60ft 0kts
10-Feb-19 13:53 33.671199 -117.874092 29 60ft 0kts
10-Feb-19 13:55 33.671199 -117.874092 29 60ft 0kts
10-Feb-19 13:56 33.671199 -117.874092 29 60ft 0kts
10-Feb-19 13:57 33.671199 -117.874092 29 60ft 0kts
10-Feb-19 13:58 33.671207 -117.874085 31 60ft 0kts
10-Feb-19 13:59 33.671207 -117.874085 31 60ft 0kts
10-Feb-19 14:00 33.671207 -117.874085 31 60ft 0kts
10-Feb-19 14:01 33.671207 -117.874085 31 60ft 0kts
10-Feb-19 14:02 33.671207 -117.874085 31 60ft 0kts
10-Feb-19 14:03 33.671207 -117.874085 31 60ft 0kts
10-Feb-19 14:04 33.671207 -117.874085 31 60ft 0kts
10-Feb-19 14:05 33.671207 -117.874085 31 60ft 0kts
10-Feb-19 14:06 33.671217 -117.874078 35 60ft 1kts
10-Feb-19 14:07 33.671766 -117.872812 28 60ft 12kts
10-Feb-19 14:08 33.676349 -117.869888 22 60ft 19kts
10-Feb-19 14:09 33.680534 -117.867403 28 60ft 17kts
10-Feb-19 14:09 33.681212 -117.866555 108 60ft 0kts
10-Feb-19 14:11 33.681212 -117.866555 108 60ft 0kts
10-Feb-19 14:12 33.681212 -117.866555 108 60ft 0kts
10-Feb-19 14:13 33.672932 -117.870784 212 230ft 102kts
10-Feb-19 14:13 33.652597 -117.892703 222 1570ft 105kts
10-Feb-19 14:14 33.624449 -117.896264 134 3166ft 108kts
10-Feb-19 14:16 33.597978 -117.861674 132 4945ft 109kts
10-Feb-19 14:17 33.583489 -117.823918 119 5347ft 146kts
10-Feb-19 14:17 33.559751 -117.791248 135 5346ft 165kts
10-Feb-19 14:18 33.526252 -117.751903 135 5342ft 170kts
10-Feb-19 14:19 33.492402 -117.712160 135 5342ft 170kts
10-Feb-19 14:20 33.451898 -117.683492 156 5342ft 171kts
10-Feb-19 14:21 33.408385 -117.660869 156 5342ft 170kts
10-Feb-19 14:22 33.364890 -117.638245 156 5342ft 170kts
10-Feb-19 14:23 33.321347 -117.615622 156 5342ft 170kts
10-Feb-19 14:24 33.277903 -117.593075 156 5342ft 170kts
10-Feb-19 14:25 33.234476 -117.570561 156 5342ft 170kts
10-Feb-19 14:26 33.200618 -117.534268 109 5340ft 170kts
10-Feb-19 14:27 33.177953 -117.486552 129 5371ft 164kts
10-Feb-19 14:28 33.152427 -117.431586 110 3126ft 186kts
10-Feb-19 14:29 33.132269 -117.374837 114 554ft 182kts
10-Feb-19 14:30 33.137519 -117.326762 72 1230ft 148kts
10-Feb-19 14:31 33.144484 -117.290489 81 1073ft 85kts
10-Feb-19 14:32 33.147271 -117.261440 86 1207ft 83kts
10-Feb-19 14:33 33.135897 -117.250951 222 1203ft 80kts
10-Feb-19 14:34 33.129192 -117.274689 257 345ft 60kts
10-Feb-19 14:35 33.128988 -117.280148 349 335ft 0kts
10-Feb-19 14:36 33.129754 -117.277755 146 335ft 4kts
10-Feb-19 14:37 33.129742 -117.277754 179 335ft 0kts
10-Feb-19 14:38 33.129742 -117.277754 179 335ft 0kts

Navigation Log

Ident Type
Flight plan parsing failed, navigation log unavailable